createdAt,value
2022-10-14T00:00:46.729Z,30.60
2022-10-14T00:05:48.865Z,30.97
2022-10-14T00:10:51.193Z,31.47
2022-10-14T00:15:53.164Z,32.28
2022-10-14T00:21:00.868Z,32.31
2022-10-14T00:26:04.485Z,34.67
2022-10-14T00:31:07.664Z,34.26
2022-10-14T00:36:12.424Z,34.15
2022-10-14T00:41:20.795Z,34.97
2022-10-14T00:46:24.727Z,36.22
2022-10-14T00:51:34.883Z,35.68
2022-10-14T00:56:37.091Z,35.63
2022-10-14T01:01:42.816Z,33.97
2022-10-14T01:07:04.013Z,35.48
2022-10-14T01:12:28.956Z,35.69
2022-10-14T01:17:58.352Z,36.47
2022-10-14T01:23:18.664Z,35.60
2022-10-14T01:28:30.105Z,33.66
2022-10-14T01:33:45.217Z,32.04
2022-10-14T01:39:02.398Z,31.44
2022-10-14T01:44:09.591Z,30.45
2022-10-14T01:49:23.496Z,29.63
2022-10-14T01:54:31.469Z,29.92
2022-10-14T01:59:35.604Z,29.82
2022-10-14T02:04:37.909Z,31.35
2022-10-14T02:10:13.845Z,32.03
2022-10-14T02:16:12.556Z,32.28
2022-10-14T02:21:17.393Z,32.35
2022-10-14T02:26:20.657Z,34.02
2022-10-14T02:31:25.023Z,32.98
2022-10-14T02:36:34.967Z,34.53
2022-10-14T02:41:41.887Z,35.49
2022-10-14T02:46:43.925Z,34.34
2022-10-14T02:51:47.501Z,35.05
2022-10-14T02:56:49.479Z,36.55
2022-10-14T03:01:51.641Z,36.88
2022-10-14T03:06:55.632Z,37.76
2022-10-14T03:11:59.664Z,40.95
2022-10-14T03:17:01.929Z,41.11
2022-10-14T03:22:07.962Z,40.39
2022-10-14T03:27:11.888Z,41.52
2022-10-14T03:32:14.214Z,39.91
2022-10-14T03:37:34.655Z,40.58
2022-10-14T03:42:38.042Z,41.42
2022-10-14T03:47:42.358Z,43.57
2022-10-14T03:52:47.099Z,44.09
2022-10-14T03:57:59.705Z,41.97
2022-10-14T04:03:02.949Z,41.13
2022-10-14T04:08:10.417Z,40.35
2022-10-14T04:13:16.171Z,38.88
2022-10-14T04:18:18.251Z,38.12
2022-10-14T04:23:22.618Z,38.13
2022-10-14T04:28:29.564Z,37.10
2022-10-14T04:33:41.533Z,38.02
2022-10-14T04:38:51.509Z,39.07
2022-10-14T04:43:54.205Z,40.06
2022-10-14T04:49:25.470Z,43.04
2022-10-14T04:54:43.928Z,42.23
2022-10-14T04:59:46.010Z,42.71
2022-10-14T05:04:48.023Z,44.97
2022-10-14T05:09:56.223Z,43.67
2022-10-14T05:15:15.129Z,44.45
2022-10-14T05:20:27.601Z,45.73
2022-10-14T05:25:31.884Z,45.54
2022-10-14T05:30:34.983Z,42.98
2022-10-14T05:35:58.749Z,44.15
2022-10-14T05:41:09.547Z,41.26
2022-10-14T05:46:12.592Z,40.82
2022-10-14T05:51:21.241Z,41.26
2022-10-14T05:56:27.589Z,40.10
2022-10-14T06:01:31.423Z,40.97
2022-10-14T06:06:33.610Z,40.66
2022-10-14T06:11:35.788Z,40.38
2022-10-14T06:16:38.221Z,42.68
2022-10-14T06:21:42.337Z,41.45
2022-10-14T06:26:44.453Z,39.08
2022-10-14T06:31:46.785Z,37.67
2022-10-14T06:36:48.817Z,36.85
2022-10-14T06:41:50.799Z,36.15
2022-10-14T06:46:55.882Z,33.48
2022-10-14T06:51:57.929Z,30.80
2022-10-14T06:56:59.913Z,31.25
2022-10-14T07:02:20.673Z,28.33
2022-10-14T07:07:23.135Z,26.78
2022-10-14T07:12:26.049Z,25.36
2022-10-14T07:17:28.046Z,24.93
2022-10-14T07:22:30.998Z,25.63
2022-10-14T07:27:34.359Z,28.24
2022-10-14T07:32:37.085Z,26.49
2022-10-14T07:37:39.145Z,28.48
2022-10-14T07:42:41.401Z,29.71
2022-10-14T07:47:45.316Z,29.35
2022-10-14T07:52:47.362Z,28.72
2022-10-14T07:57:49.348Z,28.23
2022-10-14T08:02:51.424Z,27.94
2022-10-14T08:07:53.458Z,27.44
2022-10-14T08:12:57.834Z,27.24
2022-10-14T08:18:00.013Z,26.85
2022-10-14T08:23:02.389Z,25.73
2022-10-14T08:28:04.926Z,26.17
2022-10-14T08:33:06.970Z,23.72
2022-10-14T08:38:09.229Z,23.86
2022-10-14T08:43:30.844Z,23.27
2022-10-14T08:48:35.497Z,21.53
2022-10-14T08:53:45.142Z,18.35
2022-10-14T08:58:50.618Z,14.79
2022-10-14T09:03:57.714Z,14.17
2022-10-14T09:09:15.651Z,11.62
2022-10-14T09:14:25.012Z,11.29
2022-10-14T09:19:33.314Z,8.97
2022-10-14T09:24:36.082Z,7.90
2022-10-14T09:29:54.876Z,7.69
2022-10-14T09:34:58.103Z,6.62
2022-10-14T09:40:04.427Z,4.96
2022-10-14T09:45:13.582Z,2.97
2022-10-14T09:50:40.961Z,4.25
2022-10-14T09:55:55.942Z,5.48
2022-10-14T10:01:00.285Z,4.95
2022-10-14T10:06:06.300Z,4.23
2022-10-14T10:11:13.705Z,2.58
2022-10-14T10:16:21.969Z,1.74
2022-10-14T10:21:32.239Z,1.34
2022-10-14T10:26:35.021Z,2.06
2022-10-14T10:32:07.194Z,1.51
2022-10-14T10:37:29.128Z,0.31
2022-10-14T10:43:06.584Z,-0.40
2022-10-14T10:48:21.290Z,0.81
2022-10-14T10:53:29.603Z,1.72
2022-10-14T10:58:49.863Z,1.71
2022-10-14T11:04:12.919Z,0.45
2022-10-14T11:09:40.559Z,-0.98
2022-10-14T11:15:10.706Z,-2.70
2022-10-14T11:20:56.262Z,-2.47
2022-10-14T11:26:18.660Z,-3.09
2022-10-14T11:31:52.101Z,-3.17
2022-10-14T11:37:12.197Z,-2.96
2022-10-14T11:42:27.092Z,-3.31
2022-10-14T11:47:35.657Z,-1.99
2022-10-14T11:53:04.381Z,-1.45
2022-10-14T11:58:17.387Z,-0.19
2022-10-14T12:03:34.441Z,1.01
2022-10-14T12:08:57.240Z,-0.22
2022-10-14T12:14:31.492Z,1.28
2022-10-14T12:19:33.950Z,1.97
2022-10-14T12:24:45.128Z,0.43
2022-10-14T12:29:52.309Z,-0.53
2022-10-14T12:34:58.482Z,0.34
2022-10-14T12:40:03.707Z,1.26
2022-10-14T12:45:24.116Z,2.38
2022-10-14T12:50:31.463Z,3.48
2022-10-14T12:55:51.139Z,3.00
2022-10-14T13:00:56.120Z,3.08
2022-10-14T13:06:28.645Z,0.90
2022-10-14T13:11:30.993Z,-0.16
2022-10-14T13:16:58.393Z,-1.64
2022-10-14T13:22:18.550Z,-2.35
2022-10-14T13:27:48.317Z,-1.35
2022-10-14T13:32:57.645Z,-0.06
2022-10-14T13:38:06.784Z,-0.60
2022-10-14T13:43:20.140Z,-0.49
2022-10-14T13:48:32.279Z,-0.53
2022-10-14T13:53:34.344Z,-1.47
2022-10-14T13:58:41.816Z,-0.10
2022-10-14T14:03:46.681Z,-0.60
2022-10-14T14:08:56.715Z,-0.67
2022-10-14T14:14:02.969Z,-1.04
2022-10-14T14:19:11.962Z,-1.07
2022-10-14T14:24:25.222Z,-0.09
2022-10-14T14:29:30.982Z,-0.34
2022-10-14T14:34:34.796Z,-0.13
2022-10-14T14:39:37.134Z,1.16
2022-10-14T14:44:39.790Z,2.84
2022-10-14T14:49:46.011Z,4.84
2022-10-14T14:54:48.385Z,5.13
2022-10-14T15:00:03.687Z,6.68
2022-10-14T15:05:08.726Z,6.60
2022-10-14T15:10:22.843Z,7.78
2022-10-14T15:15:31.139Z,8.93
2022-10-14T15:20:37.286Z,10.02
2022-10-14T15:25:41.101Z,11.80
2022-10-14T15:30:43.107Z,12.62
2022-10-14T15:35:53.496Z,14.10
2022-10-14T15:41:02.091Z,14.25
2022-10-14T15:46:31.896Z,14.85
2022-10-14T15:51:34.209Z,15.56
2022-10-14T15:56:36.309Z,17.31
2022-10-14T16:01:41.171Z,17.67
2022-10-14T16:06:43.298Z,17.83
2022-10-14T16:11:45.402Z,18.24
2022-10-14T16:16:47.510Z,18.75
2022-10-14T16:21:50.369Z,19.99
2022-10-14T16:26:53.036Z,21.11
2022-10-14T16:31:55.385Z,21.67
2022-10-14T16:36:57.708Z,21.98
2022-10-14T16:42:00.297Z,24.49
2022-10-14T16:47:17.569Z,23.97
2022-10-14T16:52:19.863Z,24.37
2022-10-14T16:57:24.226Z,24.86
2022-10-14T17:02:34.900Z,26.23
2022-10-14T17:07:37.205Z,25.93
2022-10-14T17:12:39.572Z,26.11
2022-10-14T17:17:41.640Z,27.29
2022-10-14T17:22:43.720Z,27.89
2022-10-14T17:27:45.840Z,29.06
2022-10-14T17:32:48.022Z,30.94
2022-10-14T17:37:54.817Z,32.24
2022-10-14T17:42:58.205Z,34.43
2022-10-14T17:48:00.785Z,35.53
2022-10-14T17:53:03.157Z,37.73
2022-10-14T17:58:05.171Z,38.09
2022-10-14T18:03:10.047Z,39.75
2022-10-14T18:08:14.007Z,41.83
2022-10-14T18:13:18.570Z,41.80
2022-10-14T18:18:20.642Z,42.85
2022-10-14T18:23:23.224Z,44.07
2022-10-14T18:28:25.587Z,43.86
2022-10-14T18:33:29.486Z,43.06
2022-10-14T18:38:32.419Z,43.45
2022-10-14T18:43:34.559Z,43.80
2022-10-14T18:48:37.507Z,44.21
2022-10-14T18:53:41.333Z,44.03
2022-10-14T18:58:49.691Z,43.84
2022-10-14T19:03:52.901Z,42.87
2022-10-14T19:08:54.905Z,42.81
2022-10-14T19:13:59.085Z,42.95
2022-10-14T19:19:08.080Z,42.29
2022-10-14T19:24:11.570Z,41.44
2022-10-14T19:29:15.247Z,40.21
2022-10-14T19:34:17.457Z,40.62
2022-10-14T19:39:19.813Z,41.14
2022-10-14T19:44:22.078Z,42.00
2022-10-14T19:49:27.266Z,42.25
2022-10-14T19:54:29.572Z,44.32
2022-10-14T19:59:31.656Z,44.23
2022-10-14T20:04:33.918Z,45.29
2022-10-14T20:09:36.085Z,44.48
2022-10-14T20:14:38.245Z,45.96
2022-10-14T20:19:40.363Z,48.48
2022-10-14T20:24:43.556Z,47.54
2022-10-14T20:29:45.573Z,48.66
2022-10-14T20:34:48.061Z,50.11
2022-10-14T20:39:50.110Z,51.10
2022-10-14T20:44:52.166Z,51.57
2022-10-14T20:49:54.261Z,52.65
2022-10-14T20:54:56.434Z,53.37
2022-10-14T20:59:58.484Z,55.13
2022-10-14T21:05:00.545Z,55.07
2022-10-14T21:10:02.886Z,57.60
2022-10-14T21:15:05.356Z,57.83
2022-10-14T21:20:07.819Z,58.84
2022-10-14T21:25:09.982Z,60.59
2022-10-14T21:30:12.764Z,60.88
2022-10-14T21:35:15.201Z,60.45
2022-10-14T21:40:17.576Z,62.73
2022-10-14T21:45:19.710Z,62.95
2022-10-14T21:50:22.397Z,63.34
2022-10-14T21:55:27.557Z,62.01
2022-10-14T22:00:36.636Z,62.20
2022-10-14T22:05:45.407Z,63.21
2022-10-14T22:10:47.721Z,62.24
2022-10-14T22:15:49.828Z,61.92
2022-10-14T22:21:00.893Z,62.02
2022-10-14T22:26:04.721Z,62.98
2022-10-14T22:31:09.577Z,63.37
2022-10-14T22:36:23.577Z,64.63
2022-10-14T22:41:30.990Z,65.53
2022-10-14T22:46:38.417Z,64.90
2022-10-14T22:51:40.924Z,65.50
2022-10-14T22:56:43.133Z,66.61
2022-10-14T23:01:45.161Z,66.18
2022-10-14T23:06:49.654Z,65.78
2022-10-14T23:11:51.712Z,65.45
2022-10-14T23:16:53.995Z,66.64
2022-10-14T23:21:56.393Z,67.04
2022-10-14T23:26:58.407Z,65.78
2022-10-14T23:32:00.509Z,65.71
2022-10-14T23:37:02.692Z,65.86
2022-10-14T23:42:04.792Z,66.08
2022-10-14T23:47:06.949Z,66.03
2022-10-14T23:52:09.592Z,66.06
2022-10-14T23:57:11.666Z,66.12
